Etusivu
METAR-TAF:

METAR-TAF

Lentoasemat :

West Memphis, Arkansas, Yhdysvallat

Leveyspiiri: 35-08N, Pituuspiiri: 090-14W, korkeus merenpinnasta: 65 m

Tämänhetkinen sää

Tämä raportti tehtiin 51 minuuttia sitten, kello 22.53 UTC
Tuuli 3 kn etelästä/lounaasta
Lämpötila 20°C
Kosteus 100%
Ilmanpaine 1005 hPa
Näkyvyys: 16.1 km
Muutamia pilviä 1100 ft:n korkeudessa
Hajanaisia pilviä 4900 ft:n korkeudessa
Hajanaisia pilviä 11000 ft:n korkeudessa

METAR: KAWM 252253Z AUTO 21003KT 10SM FEW011 SCT049 SCT110 20/20 A2969 RMK AO2 RAE43 SLP050 P0062 T02000200

Aika: 18:44 (23:44 UTC)


TAF: puuttuu

Säähavainnot ja -ennusteet yli 4000 lentoasemalta (METAR- ja TAF-raportit).

Käytössä olevat sääasemat on merkitty karttaan keltaisilla ja punaisilla pisteillä.

Aseta hiiri pisteen päälle nähdäksesi sääaseman nimen.

Klikkaa sitten nähdäksesi säähavainnot ja -ennusteet.

Kartan vaihtaminen: klikkaa mustalla rastilla varustettuja vihreitä pisteitä, niin voit zoomata sisään; viivalla varustettua vihreää pistettä, niin voit zoomata ulos tai vihreitä nuolia, niin pääset viereisille kartoille.


METAR-TAF: